createdAt,value
2023-04-24T00:00:49.759Z,99381.34
2023-04-24T00:03:18.014Z,99368.28
2023-04-24T00:05:46.666Z,99361.31
2023-04-24T00:08:14.422Z,99358.03
2023-04-24T00:10:43.682Z,99355.28
2023-04-24T00:13:11.588Z,99349.38
2023-04-24T00:15:39.389Z,99350.19
2023-04-24T00:18:07.403Z,99354.47
2023-04-24T00:20:36.388Z,99359.16
2023-04-24T00:23:04.509Z,99359.97
2023-04-24T00:25:32.261Z,99351.72
2023-04-24T00:28:01.306Z,99345.59
2023-04-24T00:30:29.737Z,99341.13
2023-04-24T00:32:57.604Z,99348.06
2023-04-24T00:35:25.746Z,99339.34
2023-04-24T00:37:53.506Z,99336.84
2023-04-24T00:40:21.445Z,99346.84
2023-04-24T00:42:49.655Z,99333.28
2023-04-24T00:45:19.227Z,99343.81
2023-04-24T00:47:47.630Z,99345.13
2023-04-24T00:50:17.426Z,99342.53
2023-04-24T00:52:45.280Z,99345.72
2023-04-24T00:55:13.120Z,99333.47
2023-04-24T00:57:41.320Z,99338.63
2023-04-24T01:00:12.769Z,99335.53
2023-04-24T01:02:45.060Z,99363.13
2023-04-24T01:05:14.161Z,99346.97
2023-04-24T01:07:45.027Z,99340.34
2023-04-24T01:10:14.807Z,99333.94
2023-04-24T01:12:42.876Z,99337.94
2023-04-24T01:15:11.979Z,99336.16
2023-04-24T01:17:40.298Z,99341.13
2023-04-24T01:20:10.604Z,99344.13
2023-04-24T01:22:39.705Z,99353.72
2023-04-24T01:25:08.079Z,99362.34
2023-04-24T01:27:35.865Z,99338.16
2023-04-24T01:30:08.079Z,99351.75
2023-04-24T01:32:36.558Z,99366.72
2023-04-24T01:35:05.438Z,99357.78
2023-04-24T01:37:34.159Z,99357.69
2023-04-24T01:40:04.469Z,99364.47
2023-04-24T01:42:32.481Z,99362.81
2023-04-24T01:45:01.111Z,99364.66
2023-04-24T01:47:29.230Z,99372.06
2023-04-24T01:49:58.609Z,99374.25
2023-04-24T01:52:26.524Z,99364.13
2023-04-24T01:54:56.786Z,99375.75
2023-04-24T01:57:26.025Z,99366.16
2023-04-24T01:59:53.960Z,99367.81
2023-04-24T02:02:22.421Z,99368.47
2023-04-24T02:04:50.326Z,99349.03
2023-04-24T02:07:18.632Z,99363.25
2023-04-24T02:09:46.354Z,99363.25
2023-04-24T02:12:14.257Z,99364.41
2023-04-24T02:14:43.763Z,99370.19
2023-04-24T02:17:14.276Z,99366.94
2023-04-24T02:19:42.220Z,99380.19
2023-04-24T02:22:11.635Z,99374.13
2023-04-24T02:24:39.647Z,99387.19
2023-04-24T02:27:08.409Z,99382.88
2023-04-24T02:29:36.813Z,99393.97
2023-04-24T02:32:06.100Z,99382.72
2023-04-24T02:34:34.838Z,99381.56
2023-04-24T02:37:02.553Z,99385.84
2023-04-24T02:39:30.304Z,99383.41
2023-04-24T02:41:58.009Z,99388.50
2023-04-24T02:44:25.745Z,99394.44
2023-04-24T02:46:56.591Z,99387.66
2023-04-24T02:49:27.020Z,99390.47
2023-04-24T02:51:55.494Z,99389.50
2023-04-24T02:54:23.261Z,99394.28
2023-04-24T02:56:51.358Z,99397.72
2023-04-24T02:59:19.105Z,99406.31
2023-04-24T03:01:46.942Z,99406.03
2023-04-24T03:04:15.051Z,99412.13
2023-04-24T03:06:44.237Z,99407.34
2023-04-24T03:09:11.990Z,99405.19
2023-04-24T03:11:39.722Z,99405.03
2023-04-24T03:14:09.736Z,99412.78
2023-04-24T03:16:39.328Z,99411.00
2023-04-24T03:19:08.410Z,99414.63
2023-04-24T03:21:45.059Z,99414.28
2023-04-24T03:24:12.941Z,99410.97
2023-04-24T03:26:41.299Z,99422.53
2023-04-24T03:29:20.291Z,99425.53
2023-04-24T03:31:48.691Z,99429.81
2023-04-24T03:34:16.553Z,99424.69
2023-04-24T03:36:48.485Z,99438.41
2023-04-24T03:39:16.417Z,99428.34
2023-04-24T03:41:51.564Z,99422.88
2023-04-24T03:44:24.424Z,99416.25
2023-04-24T03:46:52.686Z,99418.75
2023-04-24T03:49:22.987Z,99427.03
2023-04-24T03:51:53.279Z,99416.28
2023-04-24T03:54:24.634Z,99416.28
2023-04-24T03:56:53.981Z,99422.72
2023-04-24T03:59:22.247Z,99420.56
2023-04-24T04:02:01.288Z,99422.53
2023-04-24T04:04:29.317Z,99421.88
2023-04-24T04:07:02.051Z,99417.09
2023-04-24T04:09:29.765Z,99418.25
2023-04-24T04:11:57.606Z,99423.69
2023-04-24T04:14:25.478Z,99420.72
2023-04-24T04:16:54.948Z,99420.06
2023-04-24T04:19:23.084Z,99420.88
2023-04-24T04:21:54.088Z,99431.63
2023-04-24T04:24:31.105Z,99441.72
2023-04-24T04:27:01.478Z,99440.06
2023-04-24T04:29:33.696Z,99440.75
2023-04-24T04:32:03.570Z,99445.03
2023-04-24T04:34:32.386Z,99440.38
2023-04-24T04:37:02.742Z,99434.78
2023-04-24T04:39:43.017Z,99441.72
2023-04-24T04:42:14.880Z,99442.41
2023-04-24T04:44:45.839Z,99443.69
2023-04-24T04:47:19.298Z,99439.09
2023-04-24T04:49:47.594Z,99446.66
2023-04-24T04:52:21.296Z,99441.88
2023-04-24T04:54:55.216Z,99445.19
2023-04-24T04:57:27.063Z,99446.84
2023-04-24T04:59:55.109Z,99453.63
2023-04-24T05:02:36.857Z,99452.81
2023-04-24T05:05:05.285Z,99453.28
2023-04-24T05:07:33.210Z,99453.94
2023-04-24T05:10:02.598Z,99462.69
2023-04-24T05:12:31.432Z,99456.28
2023-04-24T05:14:59.871Z,99456.09
2023-04-24T05:17:28.400Z,99459.25
2023-04-24T05:19:57.712Z,99458.41
2023-04-24T05:22:26.245Z,99457.59
2023-04-24T05:24:54.293Z,99461.22
2023-04-24T05:27:39.248Z,99468.84
2023-04-24T05:30:13.903Z,99469.16
2023-04-24T05:32:41.890Z,99462.88
2023-04-24T05:35:10.519Z,99479.75
2023-04-24T05:37:38.374Z,99476.59
2023-04-24T05:40:07.905Z,99473.59
2023-04-24T05:42:35.610Z,99475.59
2023-04-24T05:45:05.516Z,99492.09
2023-04-24T05:47:33.283Z,99489.44
2023-04-24T05:50:01.478Z,99476.88
2023-04-24T05:52:30.089Z,99470.91
2023-04-24T05:54:58.175Z,99474.72
2023-04-24T05:57:29.595Z,99476.38
2023-04-24T06:00:06.512Z,99478.03
2023-04-24T06:02:41.315Z,99480.03
2023-04-24T06:05:12.791Z,99474.72
2023-04-24T06:07:41.407Z,99485.94
2023-04-24T06:10:11.042Z,99483.28
2023-04-24T06:12:43.079Z,99498.53
2023-04-24T06:15:18.353Z,99482.16
2023-04-24T06:17:59.782Z,99492.13
2023-04-24T06:20:28.087Z,99482.84
2023-04-24T06:22:56.016Z,99476.91
2023-04-24T06:25:23.940Z,99472.28
2023-04-24T06:27:52.363Z,99472.13
2023-04-24T06:30:21.521Z,99484.09
2023-04-24T06:32:49.315Z,99486.22
2023-04-24T06:35:17.333Z,99485.09
2023-04-24T06:37:45.581Z,99488.19
2023-04-24T06:40:13.597Z,99488.81
2023-04-24T06:42:41.502Z,99494.75
2023-04-24T06:45:10.917Z,99492.41
2023-04-24T06:47:40.083Z,99496.97
2023-04-24T06:50:08.900Z,99491.06
2023-04-24T06:52:36.670Z,99487.91
2023-04-24T06:55:05.240Z,99499.88
2023-04-24T06:57:33.449Z,99513.84
2023-04-24T07:00:01.181Z,99501.63
2023-04-24T07:02:29.075Z,99490.88
2023-04-24T07:04:58.509Z,99506.97
2023-04-24T07:07:26.364Z,99513.56
2023-04-24T07:09:55.176Z,99515.66
2023-04-24T07:12:22.946Z,99509.56
2023-04-24T07:14:50.714Z,99515.81
2023-04-24T07:17:18.541Z,99518.06
2023-04-24T07:19:46.449Z,99510.16
2023-04-24T07:22:17.929Z,99531.22
2023-04-24T07:24:45.800Z,99523.72
2023-04-24T07:27:15.701Z,99532.75
2023-04-24T07:29:43.876Z,99521.91
2023-04-24T07:32:11.970Z,99526.97
2023-04-24T07:34:39.676Z,99528.03
2023-04-24T07:37:07.600Z,99524.34
2023-04-24T07:39:36.763Z,99535.91
2023-04-24T07:42:05.269Z,99547.34
2023-04-24T07:44:33.258Z,99545.25
2023-04-24T07:47:01.157Z,99562.06
2023-04-24T07:49:29.403Z,99554.66
2023-04-24T07:51:57.156Z,99570.50
2023-04-24T07:54:24.877Z,99566.19
2023-04-24T07:56:53.970Z,99561.69
2023-04-24T07:59:21.860Z,99565.75
2023-04-24T08:01:49.642Z,99577.59
2023-04-24T08:04:18.941Z,99581.09
2023-04-24T08:06:46.795Z,99599.41
2023-04-24T08:09:14.510Z,99604.72
2023-04-24T08:11:42.342Z,99602.00
2023-04-24T08:14:13.434Z,99602.88
2023-04-24T08:16:41.441Z,99608.28
2023-04-24T08:19:09.188Z,99618.53
2023-04-24T08:21:36.927Z,99610.06
2023-04-24T08:24:08.623Z,99620.59
2023-04-24T08:26:36.535Z,99622.03
2023-04-24T08:29:04.370Z,99635.06
2023-04-24T08:31:33.511Z,99611.53
2023-04-24T08:34:01.915Z,99622.09
2023-04-24T08:36:43.378Z,99630.94
2023-04-24T08:39:14.086Z,99619.56
2023-04-24T08:41:44.183Z,99635.50
2023-04-24T08:44:13.715Z,99634.84
2023-04-24T08:46:44.587Z,99658.97
2023-04-24T08:49:12.865Z,99666.31
2023-04-24T08:51:41.931Z,99651.09
2023-04-24T08:54:10.475Z,99659.25
2023-04-24T08:56:41.180Z,99674.38
2023-04-24T08:59:09.953Z,99678.38
2023-04-24T09:01:40.656Z,99664.13
2023-04-24T09:04:12.330Z,99714.41
2023-04-24T09:06:40.927Z,99683.38
2023-04-24T09:09:10.347Z,99703.88
2023-04-24T09:11:39.281Z,99678.38
2023-04-24T09:14:08.745Z,99701.78
2023-04-24T09:16:36.923Z,99712.31
2023-04-24T09:19:04.979Z,99700.78
2023-04-24T09:21:36.181Z,99727.94
2023-04-24T09:24:06.157Z,99725.63
2023-04-24T09:26:34.586Z,99744.59
2023-04-24T09:29:02.733Z,99735.16
2023-04-24T09:31:31.621Z,99741.50
2023-04-24T09:34:02.206Z,99744.88
2023-04-24T09:36:34.018Z,99769.53
2023-04-24T09:39:03.914Z,99751.78
2023-04-24T09:41:31.748Z,99787.41
2023-04-24T09:44:12.544Z,99784.19
2023-04-24T09:46:40.563Z,99779.63
2023-04-24T09:49:14.581Z,99789.16
2023-04-24T09:51:42.547Z,99797.19
2023-04-24T09:54:19.345Z,99798.28
2023-04-24T09:56:48.610Z,99793.59
2023-04-24T09:59:17.526Z,99807.13
2023-04-24T10:01:46.036Z,99816.31
2023-04-24T10:04:19.250Z,99807.25
2023-04-24T10:06:49.714Z,99808.66
2023-04-24T10:09:19.928Z,99813.78
2023-04-24T10:11:49.336Z,99823.31
2023-04-24T10:14:18.799Z,99826.50
2023-04-24T10:16:47.964Z,99817.63
2023-04-24T10:19:16.905Z,99832.00
2023-04-24T10:21:47.546Z,99836.03
2023-04-24T10:24:16.647Z,99839.16
2023-04-24T10:26:49.192Z,99833.59
2023-04-24T10:29:19.876Z,99841.72
2023-04-24T10:31:48.337Z,99849.72
2023-04-24T10:34:18.536Z,99850.81
2023-04-24T10:36:54.294Z,99848.53
2023-04-24T10:39:27.720Z,99851.28
2023-04-24T10:41:58.425Z,99854.78
2023-04-24T10:44:27.771Z,99857.75
2023-04-24T10:46:57.591Z,99859.69
2023-04-24T10:49:30.823Z,99859.97
2023-04-24T10:52:02.986Z,99858.53
2023-04-24T10:54:32.117Z,99865.19
2023-04-24T10:57:31.759Z,99885.88
2023-04-24T11:00:21.758Z,99893.88
2023-04-24T11:02:54.106Z,99891.69
2023-04-24T11:05:22.899Z,99904.31
2023-04-24T11:08:12.794Z,99904.03
2023-04-24T11:10:46.607Z,99907.50
2023-04-24T11:13:18.590Z,99900.19
2023-04-24T11:15:46.509Z,99922.53
2023-04-24T11:18:17.827Z,99919.34
2023-04-24T11:20:46.496Z,99919.47
2023-04-24T11:23:15.909Z,99924.03
2023-04-24T11:25:43.981Z,99921.06
2023-04-24T11:28:18.402Z,99922.91
2023-04-24T11:30:46.212Z,99934.50
2023-04-24T11:33:21.743Z,99934.38
2023-04-24T11:35:49.684Z,99932.25
2023-04-24T11:38:24.716Z,99933.47
2023-04-24T11:40:53.991Z,99939.53
2023-04-24T11:43:23.607Z,99920.63
2023-04-24T11:45:51.763Z,99932.00
2023-04-24T11:48:22.608Z,99933.78
2023-04-24T11:50:51.441Z,99928.06
2023-04-24T11:53:21.512Z,99927.81
2023-04-24T11:55:49.328Z,99934.75
2023-04-24T11:58:17.074Z,99933.88
2023-04-24T12:00:46.633Z,99930.25
2023-04-24T12:03:14.881Z,99941.41
2023-04-24T12:05:43.203Z,99940.38
2023-04-24T12:08:11.304Z,99947.06
2023-04-24T12:10:39.009Z,99945.88
2023-04-24T12:13:06.730Z,99956.09
2023-04-24T12:15:34.619Z,99961.03
2023-04-24T12:18:03.934Z,99957.28
2023-04-24T12:20:33.075Z,99973.69
2023-04-24T12:23:02.620Z,99966.75
2023-04-24T12:25:31.537Z,99961.19
2023-04-24T12:28:12.654Z,99977.63
2023-04-24T12:30:45.333Z,99987.06
2023-04-24T12:33:19.857Z,99987.06
2023-04-24T12:35:47.948Z,99980.63
2023-04-24T12:38:18.851Z,99991.59
2023-04-24T12:40:46.776Z,99979.66
2023-04-24T12:43:18.105Z,99974.25
2023-04-24T12:45:46.286Z,99981.53
2023-04-24T12:48:15.223Z,99980.84
2023-04-24T12:50:46.057Z,99990.00
2023-04-24T12:53:14.468Z,100006.84
2023-04-24T12:55:42.264Z,99987.88
2023-04-24T12:58:10.233Z,99994.75
2023-04-24T13:00:38.288Z,99989.47
2023-04-24T13:03:07.329Z,100003.84
2023-04-24T13:05:35.202Z,100005.13
2023-04-24T13:08:04.337Z,100000.44
2023-04-24T13:10:32.400Z,100026.09
2023-04-24T13:13:00.166Z,99996.78
2023-04-24T13:15:27.900Z,99999.16
2023-04-24T13:17:55.660Z,100003.75
2023-04-24T13:20:23.507Z,99993.09
2023-04-24T13:22:51.260Z,100006.69
2023-04-24T13:25:21.421Z,100021.69
2023-04-24T13:27:49.160Z,100006.88
2023-04-24T13:30:17.210Z,100012.09
2023-04-24T13:32:45.052Z,100000.53
2023-04-24T13:35:12.998Z,100022.31
2023-04-24T13:37:40.760Z,100029.94
2023-04-24T13:40:09.916Z,100010.91
2023-04-24T13:42:39.150Z,100022.78
2023-04-24T13:45:21.252Z,100014.56
2023-04-24T13:47:53.391Z,100015.13
2023-04-24T13:50:21.526Z,100011.44
2023-04-24T13:52:49.322Z,100012.97
2023-04-24T13:55:17.394Z,100021.84
2023-04-24T13:57:46.467Z,100026.56
2023-04-24T14:00:16.086Z,100050.75
2023-04-24T14:02:43.989Z,100015.75
2023-04-24T14:05:12.953Z,100025.38
2023-04-24T14:07:40.713Z,100014.22
2023-04-24T14:10:09.580Z,100018.31
2023-04-24T14:12:37.466Z,100023.09
2023-04-24T14:15:08.008Z,100013.94
2023-04-24T14:17:35.854Z,100022.94
2023-04-24T14:20:05.306Z,100036.19
2023-04-24T14:22:33.165Z,100033.66
2023-04-24T14:25:00.969Z,100034.47
2023-04-24T14:27:28.814Z,100031.88
2023-04-24T14:29:58.085Z,100037.94
2023-04-24T14:32:29.700Z,100029.31
2023-04-24T14:34:57.857Z,100024.66
2023-04-24T14:37:25.666Z,100031.47
2023-04-24T14:40:11.011Z,100037.28
2023-04-24T14:42:41.679Z,100046.09
2023-04-24T14:45:10.461Z,100048.56
2023-04-24T14:47:43.040Z,100038.97
2023-04-24T14:50:13.423Z,100037.28
2023-04-24T14:52:41.284Z,100042.69
2023-04-24T14:55:09.994Z,100051.09
2023-04-24T14:57:38.038Z,100047.63
2023-04-24T15:00:09.254Z,100041.53
2023-04-24T15:02:40.777Z,100054.44
2023-04-24T15:05:10.876Z,100050.50
2023-04-24T15:07:39.029Z,100049.66
2023-04-24T15:10:07.902Z,100047.69
2023-04-24T15:12:35.758Z,100048.88
2023-04-24T15:15:03.682Z,100052.91
2023-04-24T15:17:32.826Z,100048.75
2023-04-24T15:20:00.553Z,100046.91
2023-04-24T15:22:29.639Z,100049.91
2023-04-24T15:24:57.443Z,100055.69
2023-04-24T15:27:40.940Z,100052.38
2023-04-24T15:30:10.223Z,100059.66
2023-04-24T15:32:38.101Z,100062.81
2023-04-24T15:35:09.159Z,100053.88
2023-04-24T15:37:39.895Z,100053.72
2023-04-24T15:40:08.922Z,100056.53
2023-04-24T15:42:36.895Z,100055.22
2023-04-24T15:45:05.218Z,100058.19
2023-04-24T15:47:33.974Z,100057.53
2023-04-24T15:50:01.756Z,100057.47
2023-04-24T15:52:29.474Z,100045.81
2023-04-24T15:54:58.602Z,100048.97
2023-04-24T15:57:27.027Z,100038.66
2023-04-24T15:59:54.830Z,100052.44
2023-04-24T16:02:22.714Z,100056.09
2023-04-24T16:04:52.184Z,100058.06
2023-04-24T16:07:19.973Z,100056.81
2023-04-24T16:09:47.758Z,100062.50
2023-04-24T16:12:17.475Z,100055.63
2023-04-24T16:14:45.314Z,100038.41
2023-04-24T16:17:13.081Z,100040.25
2023-04-24T16:19:40.949Z,100041.88
2023-04-24T16:22:09.793Z,100045.22
2023-04-24T16:24:37.663Z,100050.88
2023-04-24T16:27:05.571Z,100054.53
2023-04-24T16:29:34.844Z,100053.56
2023-04-24T16:32:02.530Z,100058.53
2023-04-24T16:34:30.373Z,100056.69
2023-04-24T16:36:58.368Z,100057.28
2023-04-24T16:39:27.661Z,100051.50
2023-04-24T16:41:56.793Z,100053.13
2023-04-24T16:44:26.268Z,100059.06
2023-04-24T16:46:55.669Z,100063.03
2023-04-24T16:49:23.789Z,100062.34
2023-04-24T16:51:51.836Z,100060.84
2023-04-24T16:54:19.615Z,100057.50
2023-04-24T16:56:47.309Z,100062.91
2023-04-24T16:59:15.235Z,100064.94
2023-04-24T17:01:43.068Z,100054.03
2023-04-24T17:04:12.344Z,100050.84
2023-04-24T17:06:40.190Z,100063.69
2023-04-24T17:09:08.245Z,100049.06
2023-04-24T17:11:36.354Z,100066.28
2023-04-24T17:14:04.646Z,100068.22
2023-04-24T17:16:32.517Z,100068.44
2023-04-24T17:19:00.826Z,100067.06
2023-04-24T17:21:29.950Z,100073.88
2023-04-24T17:23:57.724Z,100074.50
2023-04-24T17:26:25.534Z,100076.66
2023-04-24T17:28:54.407Z,100078.66
2023-04-24T17:31:23.357Z,100076.09
2023-04-24T17:33:51.506Z,100068.47
2023-04-24T17:36:19.325Z,100082.75
2023-04-24T17:38:48.723Z,100078.25
2023-04-24T17:41:17.120Z,100079.69
2023-04-24T17:43:45.683Z,100082.34
2023-04-24T17:46:14.000Z,100078.34
2023-04-24T17:48:41.823Z,100090.09
2023-04-24T17:51:09.585Z,100083.59
2023-04-24T17:53:37.302Z,100091.50
2023-04-24T17:56:07.034Z,100068.69
2023-04-24T17:58:35.336Z,100085.69
2023-04-24T18:01:03.611Z,100096.59
2023-04-24T18:03:31.738Z,100090.91
2023-04-24T18:05:59.568Z,100089.59
2023-04-24T18:08:27.339Z,100089.75
2023-04-24T18:10:55.100Z,100089.75
2023-04-24T18:13:24.245Z,100098.44
2023-04-24T18:15:52.056Z,100095.09
2023-04-24T18:18:19.868Z,100099.06
2023-04-24T18:20:47.775Z,100107.16
2023-04-24T18:23:16.522Z,100110.91
2023-04-24T18:25:44.380Z,100103.44
2023-04-24T18:28:12.098Z,100111.50
2023-04-24T18:30:41.386Z,100115.09
2023-04-24T18:33:09.211Z,100114.69
2023-04-24T18:35:37.055Z,100115.66
2023-04-24T18:38:05.199Z,100119.22
2023-04-24T18:40:33.029Z,100114.91
2023-04-24T18:43:00.926Z,100123.84
2023-04-24T18:45:28.701Z,100128.44
2023-04-24T18:47:57.801Z,100135.00
2023-04-24T18:50:27.600Z,100128.94
2023-04-24T18:52:55.409Z,100137.72
2023-04-24T18:55:23.352Z,100132.16
2023-04-24T18:57:51.145Z,100138.59
2023-04-24T19:00:19.958Z,100133.91
2023-04-24T19:02:48.364Z,100138.50
2023-04-24T19:05:22.056Z,100147.19
2023-04-24T19:07:49.785Z,100141.88
2023-04-24T19:10:17.802Z,100153.59
2023-04-24T19:12:45.691Z,100157.75
2023-04-24T19:15:13.599Z,100159.69
2023-04-24T19:17:41.693Z,100152.06
2023-04-24T19:20:09.928Z,100160.28
2023-04-24T19:22:39.067Z,100160.56
2023-04-24T19:25:07.510Z,100164.19
2023-04-24T19:27:35.376Z,100167.50
2023-04-24T19:30:03.393Z,100166.81
2023-04-24T19:32:31.108Z,100174.09
2023-04-24T19:34:58.907Z,100179.19
2023-04-24T19:37:26.753Z,100173.91
2023-04-24T19:39:55.827Z,100180.34
2023-04-24T19:42:35.831Z,100181.69
2023-04-24T19:45:12.236Z,100181.00
2023-04-24T19:47:40.240Z,100183.09
2023-04-24T19:50:09.316Z,100180.59
2023-04-24T19:52:37.073Z,100177.50
2023-04-24T19:55:06.946Z,100168.47
2023-04-24T19:57:34.851Z,100181.13
2023-04-24T20:00:02.720Z,100175.31
2023-04-24T20:02:32.954Z,100176.28
2023-04-24T20:05:01.112Z,100175.91
2023-04-24T20:07:29.047Z,100175.91
2023-04-24T20:09:56.800Z,100178.53
2023-04-24T20:12:28.675Z,100176.03
2023-04-24T20:14:56.575Z,100183.00
2023-04-24T20:17:24.534Z,100170.91
2023-04-24T20:19:52.350Z,100175.63
2023-04-24T20:22:20.305Z,100173.97
2023-04-24T20:24:48.210Z,100174.25
2023-04-24T20:27:16.184Z,100176.47
2023-04-24T20:29:45.325Z,100182.88
2023-04-24T20:32:13.162Z,100178.97
2023-04-24T20:34:40.917Z,100169.84
2023-04-24T20:37:08.757Z,100181.78
2023-04-24T20:39:36.998Z,100182.22
2023-04-24T20:42:07.678Z,100178.31
2023-04-24T20:44:35.609Z,100183.03
2023-04-24T20:47:06.300Z,100170.28
2023-04-24T20:49:34.153Z,100184.28
2023-04-24T20:52:02.041Z,100188.22
2023-04-24T20:54:29.762Z,100185.97
2023-04-24T20:57:00.148Z,100191.53
2023-04-24T20:59:28.609Z,100191.53
2023-04-24T21:01:56.480Z,100186.69
2023-04-24T21:04:26.216Z,100193.78
2023-04-24T21:06:54.176Z,100186.81
2023-04-24T21:09:21.996Z,100195.84
2023-04-24T21:11:49.775Z,100195.03
2023-04-24T21:14:17.945Z,100199.88
2023-04-24T21:16:45.811Z,100200.19
2023-04-24T21:19:13.521Z,100196.97
2023-04-24T21:21:42.579Z,100193.22
2023-04-24T21:24:13.402Z,100191.97
2023-04-24T21:26:41.303Z,100192.38
2023-04-24T21:29:09.032Z,100193.09
2023-04-24T21:31:36.790Z,100194.88
2023-04-24T21:34:04.624Z,100186.41
2023-04-24T21:36:32.928Z,100187.66
2023-04-24T21:39:02.052Z,100191.84
2023-04-24T21:41:29.855Z,100191.00
2023-04-24T21:43:57.705Z,100187.94
2023-04-24T21:46:25.747Z,100185.19
2023-04-24T21:48:53.496Z,100188.66
2023-04-24T21:51:21.348Z,100189.34
2023-04-24T21:53:49.367Z,100188.09
2023-04-24T21:56:18.874Z,100192.41
2023-04-24T21:58:47.316Z,100193.50
2023-04-24T22:01:15.669Z,100192.66
2023-04-24T22:03:46.880Z,100185.47
2023-04-24T22:06:16.698Z,100196.13
2023-04-24T22:08:47.521Z,100194.47
2023-04-24T22:11:25.897Z,100192.41
2023-04-24T22:13:56.134Z,100190.72
2023-04-24T22:16:24.946Z,100189.16
2023-04-24T22:18:55.146Z,100194.19
2023-04-24T22:21:23.624Z,100192.50
2023-04-24T22:23:51.709Z,100186.00
2023-04-24T22:26:19.783Z,100188.19
2023-04-24T22:28:48.480Z,100181.25
2023-04-24T22:31:17.790Z,100188.91
2023-04-24T22:33:47.294Z,100182.09
2023-04-24T22:36:15.848Z,100186.84
2023-04-24T22:38:43.496Z,100196.69
2023-04-24T22:41:11.444Z,100184.03
2023-04-24T22:43:39.551Z,100177.53
2023-04-24T22:46:07.459Z,100181.66
2023-04-24T22:48:36.635Z,100185.56
2023-04-24T22:51:04.500Z,100181.53
2023-04-24T22:53:32.289Z,100186.22
2023-04-24T22:56:00.936Z,100185.84
2023-04-24T22:58:29.310Z,100184.28
2023-04-24T23:00:57.150Z,100184.03
2023-04-24T23:03:25.668Z,100189.88
2023-04-24T23:05:55.048Z,100184.16
2023-04-24T23:08:22.797Z,100186.53
2023-04-24T23:10:50.818Z,100183.47
2023-04-24T23:13:18.920Z,100181.78
2023-04-24T23:15:46.597Z,100183.47
2023-04-24T23:18:14.380Z,100184.44
2023-04-24T23:20:43.312Z,100187.06
2023-04-24T23:23:12.681Z,100181.34
2023-04-24T23:25:41.018Z,100174.84
2023-04-24T23:28:08.788Z,100176.47
2023-04-24T23:30:36.514Z,100175.78
2023-04-24T23:33:04.881Z,100178.13
2023-04-24T23:35:32.859Z,100184.53
2023-04-24T23:38:00.800Z,100186.88
2023-04-24T23:40:29.921Z,100186.75
2023-04-24T23:43:06.334Z,100195.75
2023-04-24T23:45:35.706Z,100189.50
2023-04-24T23:48:04.078Z,100182.16
2023-04-24T23:50:31.970Z,100185.63
2023-04-24T23:52:59.910Z,100183.84
2023-04-24T23:55:29.180Z,100184.34
2023-04-24T23:57:56.914Z,100183.25
